Time;durP1;ratioP1;P1;durP2;ratioP2;P2;SDS_P1;SDS_P2;PMS_P1;PMS_P2;Temp;Humidity;BMP_temperature;BMP_pressure;BME280_temperature;BME280_humidity;BME280_pressure;Samples;Min_cycle;Max_cycle;Signal;HPM_P1;HPM_P2
2022/07/28 00:01:42;;;;;;;1999.90;999.90;;;;;;;10.86;100.00;99959.66;5066884;28;20391;-51
2022/07/28 00:04:26;;;;;;;1999.90;999.90;;;;;;;10.77;100.00;99946.78;5060095;28;20482;-50
2022/07/28 00:07:11;;;;;;;1999.90;999.90;;;;;;;10.84;100.00;99957.97;5070325;28;20044;-50
2022/07/28 00:09:56;;;;;;;1999.90;999.90;;;;;;;10.76;100.00;99961.66;5063275;28;20926;-51
2022/07/28 00:12:40;;;;;;;1999.90;999.90;;;;;;;10.79;100.00;99962.44;5062795;28;20040;-51
2022/07/28 00:15:25;;;;;;;1999.90;999.90;;;;;;;10.73;100.00;99959.09;5058950;28;20041;-50
2022/07/28 00:18:10;;;;;;;1999.90;999.90;;;;;;;10.74;100.00;99958.19;5064059;28;20053;-51
2022/07/28 00:20:56;;;;;;;1999.90;999.90;;;;;;;10.66;100.00;99961.88;5069864;28;20040;-51
2022/07/28 00:23:41;;;;;;;1999.90;999.90;;;;;;;10.63;100.00;99962.81;5059672;28;20048;-50
2022/07/28 00:26:26;;;;;;;1999.90;999.90;;;;;;;10.65;100.00;99971.50;5062888;28;20078;-51
2022/07/28 00:29:10;;;;;;;1999.90;999.90;;;;;;;10.55;100.00;99954.28;5061194;28;20041;-50
2022/07/28 00:31:55;;;;;;;1999.90;999.90;;;;;;;10.44;100.00;99964.13;5067835;28;20052;-51
2022/07/28 00:34:39;;;;;;;1999.90;999.90;;;;;;;10.43;100.00;99957.16;5059721;28;20040;-50
2022/07/28 00:37:23;;;;;;;1999.90;999.90;;;;;;;10.43;100.00;99947.56;5065775;28;20032;-51
2022/07/28 00:40:08;;;;;;;1999.90;999.90;;;;;;;10.46;100.00;99952.75;5054840;28;20052;-50
2022/07/28 00:42:53;;;;;;;1999.90;999.90;;;;;;;10.41;100.00;99953.72;5055547;28;20630;-50
2022/07/28 00:45:38;;;;;;;1999.90;999.90;;;;;;;10.33;100.00;99951.25;5052644;28;20419;-50
2022/07/28 00:48:22;;;;;;;1999.90;999.90;;;;;;;10.22;100.00;99942.75;5056412;28;20041;-50
2022/07/28 00:51:08;;;;;;;1999.90;999.90;;;;;;;10.16;100.00;99945.50;5059388;28;20037;-51
2022/07/28 00:53:54;;;;;;;1999.90;999.90;;;;;;;10.12;100.00;99947.31;5069739;28;20048;-50
2022/07/28 00:56:38;;;;;;;1999.90;999.90;;;;;;;10.04;100.00;99944.00;5062552;28;20041;-50
2022/07/28 00:59:24;;;;;;;1999.90;999.90;;;;;;;10.12;100.00;99952.56;5060132;28;20041;-49
2022/07/28 01:02:08;;;;;;;1999.90;999.90;;;;;;;10.12;100.00;99954.31;5059225;28;20515;-49
2022/07/28 01:04:53;;;;;;;1999.90;999.90;;;;;;;10.06;100.00;99950.91;5063194;28;20514;-50
2022/07/28 01:07:44;;;;;;;1999.90;999.90;;;;;;;10.07;100.00;99955.28;5056129;28;20120;-51
2022/07/28 01:10:49;;;;;;;1999.90;999.90;;;;;;;10.04;100.00;99959.69;5056915;28;20981;-50
2022/07/28 01:14:14;;;;;;;1999.90;999.90;;;;;;;9.94;100.00;99958.16;5051597;28;20041;-51
2022/07/28 01:17:07;;;;;;;1999.90;999.90;;;;;;;9.94;100.00;99952.91;5052353;28;20131;-51
2022/07/28 01:20:13;;;;;;;1999.90;999.90;;;;;;;9.94;100.00;99958.16;5053226;28;20044;-50
2022/07/28 01:23:07;;;;;;;1999.90;999.90;;;;;;;9.89;100.00;99960.03;5049699;28;20190;-49
2022/07/28 01:26:20;;;;;;;1999.90;999.90;;;;;;;9.90;100.00;99970.44;5062056;28;20052;-51
2022/07/28 01:29:21;;;;;;;1999.90;999.90;;;;;;;9.79;100.00;99965.44;5053475;28;20057;-51
2022/07/28 01:32:19;;;;;;;1999.90;999.90;;;;;;;9.83;100.00;99969.69;5054673;28;20048;-51
2022/07/28 01:35:18;;;;;;;1999.90;999.90;;;;;;;9.78;100.00;99965.44;5059556;28;20048;-51
2022/07/28 01:38:06;;;;;;;1999.90;999.90;;;;;;;9.78;100.00;99971.56;5059558;28;20052;-50
2022/07/28 01:40:54;;;;;;;1999.90;999.90;;;;;;;9.70;100.00;99960.38;5068948;28;20714;-50
2022/07/28 01:43:43;;;;;;;1999.90;999.90;;;;;;;9.69;100.00;99973.50;5059616;28;20036;-51
2022/07/28 01:46:29;;;;;;;1999.90;999.90;;;;;;;9.63;100.00;99969.22;5057293;28;20052;-51
2022/07/28 01:49:15;;;;;;;1999.90;999.90;;;;;;;9.65;100.00;99967.47;5060203;28;20053;-50
2022/07/28 01:52:01;;;;;;;1999.90;999.90;;;;;;;9.65;100.00;99961.34;5056031;28;20044;-51
2022/07/28 01:54:48;;;;;;;1999.90;999.90;;;;;;;9.55;100.00;99965.88;5056527;28;21437;-51
2022/07/28 01:57:35;;;;;;;1999.90;999.90;;;;;;;9.43;100.00;99956.53;5056617;28;20475;-50
2022/07/28 02:00:20;;;;;;;1999.90;999.90;;;;;;;9.44;100.00;99960.00;5062142;28;20056;-50
2022/07/28 02:03:06;;;;;;;1999.90;999.90;;;;;;;9.42;100.00;99953.91;5060974;28;20502;-50
2022/07/28 02:05:54;;;;;;;1999.90;999.90;;;;;;;9.38;100.00;99970.56;5066575;28;20951;-50
2022/07/28 02:08:40;;;;;;;1999.90;999.90;;;;;;;9.33;100.00;99971.50;5061006;28;20932;-50
2022/07/28 02:11:40;;;;;;;1999.90;999.90;;;;;;;9.21;100.00;99971.72;5068609;28;20048;-51
2022/07/28 02:14:27;;;;;;;1999.90;999.90;;;;;;;9.23;100.00;99977.78;5060519;28;20464;-51
2022/07/28 02:17:15;;;;;;;1999.90;999.90;;;;;;;9.15;100.00;99969.19;5064540;28;20052;-51
2022/07/28 02:20:01;;;;;;;1999.90;999.90;;;;;;;9.09;100.00;99977.13;5056520;28;20127;-51
2022/07/28 02:22:47;;;;;;;1999.90;999.90;;;;;;;9.11;100.00;99976.22;5064120;28;20048;-50
2022/07/28 02:25:32;;;;;;;1999.90;999.90;;;;;;;9.02;100.00;99967.66;5066196;28;20127;-51
2022/07/28 02:28:20;;;;;;;1999.90;999.90;;;;;;;8.98;100.00;99961.63;5063679;28;20048;-51
2022/07/28 02:31:11;;;;;;;1999.90;999.90;;;;;;;8.95;100.00;99979.97;5059988;28;20140;-51
2022/07/28 02:34:01;;;;;;;1999.90;999.90;;;;;;;8.89;100.00;99967.00;5060074;28;20048;-50
2022/07/28 02:36:55;;;;;;;1999.90;999.90;;;;;;;8.94;100.00;99986.09;5065989;28;20040;-51
2022/07/28 02:39:44;;;;;;;;;;;;;;;8.95;100.00;99984.34;5063625;28;20515;-51
2022/07/28 02:42:32;;;;;;;1999.90;999.90;;;;;;;8.84;100.00;99969.69;5063453;28;20489;-51
2022/07/28 02:45:20;;;;;;;1999.90;999.90;;;;;;;8.88;100.00;99984.44;5068749;28;20463;-51
2022/07/28 02:48:09;;;;;;;1999.90;999.90;;;;;;;8.91;100.00;99985.28;5057710;28;20476;-51
2022/07/28 02:50:56;;;;;;;1999.90;999.90;;;;;;;8.87;100.00;99989.66;5057836;28;20052;-51
2022/07/28 02:53:41;;;;;;;1999.90;999.90;;;;;;;8.85;100.00;99994.91;5066888;28;20490;-50
2022/07/28 02:56:28;;;;;;;1999.90;999.90;;;;;;;8.65;100.00;99992.59;5048902;28;20049;-51
2022/07/28 02:59:14;;;;;;;1999.90;999.90;;;;;;;8.76;100.00;99997.66;5050681;28;20052;-51
2022/07/28 03:01:59;;;;;;;1999.90;999.90;;;;;;;8.65;100.00;99999.59;5049547;28;20049;-51
2022/07/28 03:04:57;;;;;;;1999.90;999.90;;;;;;;8.71;100.00;100003.81;5053187;28;20048;-51
2022/07/28 03:07:42;;;;;;;1999.90;999.90;;;;;;;8.72;100.00;100001.22;5053791;28;20052;-50
2022/07/28 03:10:27;;;;;;;1999.90;999.90;;;;;;;8.71;100.00;100009.94;5052776;28;20045;-50
2022/07/28 03:13:12;;;;;;;1999.90;999.90;;;;;;;8.70;100.00;100008.19;5059453;28;20480;-51
2022/07/28 03:15:56;;;;;;;1999.90;999.90;;;;;;;8.67;100.00;100008.22;5054813;28;21202;-50
2022/07/28 03:18:41;;;;;;;1999.90;999.90;;;;;;;8.63;100.00;100015.25;5056543;28;20053;-50
2022/07/28 03:21:25;;;;;;;1999.90;999.90;;;;;;;8.62;100.00;100018.75;5058709;28;20036;-50
2022/07/28 03:24:10;;;;;;;1999.90;999.90;;;;;;;8.62;100.00;100017.91;5055095;28;20411;-51
2022/07/28 03:27:01;;;;;;;1999.90;999.90;;;;;;;8.60;100.00;100030.97;5056040;28;20048;-50
2022/07/28 03:29:49;;;;;;;1999.90;999.90;;;;;;;8.59;100.00;100029.25;5055943;28;20468;-51
2022/07/28 03:32:39;;;;;;;1999.90;999.90;;;;;;;8.54;100.00;100028.44;5056312;28;20040;-51
2022/07/28 03:35:25;;;;;;;1999.90;999.90;;;;;;;8.61;100.00;100026.59;5056232;28;20147;-51
2022/07/28 03:38:17;;;;;;;1999.90;999.90;;;;;;;8.58;100.00;100034.47;5055630;28;20048;-50
2022/07/28 03:41:02;;;;;;;1999.90;999.90;;;;;;;8.64;100.00;100043.13;5066784;28;20098;-50
2022/07/28 03:43:49;;;;;;;1999.90;999.90;;;;;;;8.66;100.00;100043.94;5061560;28;20041;-50
2022/07/28 03:46:34;;;;;;;1999.90;999.90;;;;;;;8.66;100.00;100043.06;5061917;28;20074;-51
2022/07/28 03:49:19;;;;;;;1999.90;999.90;;;;;;;8.56;100.00;100033.66;5066142;28;20072;-50
2022/07/28 03:52:04;;;;;;;1999.90;999.90;;;;;;;8.73;100.00;100049.06;5056292;28;20055;-50
2022/07/28 03:54:49;;;;;;;1999.90;999.90;;;;;;;8.76;100.00;100049.03;5055614;28;20494;-50
2022/07/28 03:57:33;;;;;;;1999.90;999.90;;;;;;;8.74;100.00;100054.31;5067437;28;20049;-51
2022/07/28 04:00:19;;;;;;;1999.90;999.90;;;;;;;8.87;100.00;100057.56;5063706;28;20037;-50
2022/07/28 04:03:04;;;;;;;1999.90;999.90;;;;;;;8.92;100.00;100052.31;5063871;28;20044;-50
2022/07/28 04:05:48;;;;;;;1999.90;999.90;;;;;;;8.84;100.00;100052.44;5065090;28;20072;-51
2022/07/28 04:08:33;;;;;;;1999.90;999.90;;;;;;;8.91;100.00;100047.97;5061078;28;20056;-51
2022/07/28 04:11:17;;;;;;;1999.90;999.90;;;;;;;9.08;100.00;100051.19;5066130;28;20048;-50
2022/07/28 04:14:02;;;;;;;1999.90;999.90;;;;;;;9.25;100.00;100057.00;5058387;28;20044;-51
2022/07/28 04:16:46;;;;;;;1999.90;999.90;;;;;;;9.45;100.00;100055.81;5056465;28;20041;-51
2022/07/28 04:19:31;;;;;;;1999.90;999.90;;;;;;;9.67;100.00;100051.97;5070469;28;20094;-51
2022/07/28 04:22:16;;;;;;;1999.90;999.90;;;;;;;9.93;100.00;100058.47;5057001;28;20044;-50
2022/07/28 04:25:01;;;;;;;1999.90;999.90;;;;;;;10.20;100.00;100055.31;5056221;28;20052;-51
2022/07/28 04:27:45;;;;;;;1999.90;999.90;;;;;;;10.51;100.00;100049.53;5053250;28;20037;-51
2022/07/28 04:30:30;;;;;;;1999.90;999.90;;;;;;;10.67;100.00;100060.53;5055766;28;20053;-52
2022/07/28 04:33:14;;;;;;;1999.90;999.90;;;;;;;11.17;100.00;100054.16;5061670;28;20131;-52
2022/07/28 04:36:00;;;;;;;1999.90;999.90;;;;;;;11.39;100.00;100056.25;5067353;28;20052;-51
2022/07/28 04:38:44;;;;;;;1999.90;999.90;;;;;;;11.20;100.00;100066.31;5060874;28;20053;-50
2022/07/28 04:41:29;;;;;;;1999.90;999.90;;;;;;;11.43;100.00;100060.53;5056684;28;20052;-52
2022/07/28 04:44:13;;;;;;;1999.90;999.90;;;;;;;11.86;100.00;100056.84;5056354;28;20069;-50
2022/07/28 04:46:57;;;;;;;1999.90;999.90;;;;;;;12.48;100.00;100049.00;5060035;28;20471;-51
2022/07/28 04:49:42;;;;;;;1999.90;999.90;;;;;;;12.82;100.00;100056.75;5058619;28;20079;-51
2022/07/28 04:52:27;;;;;;;1999.90;999.90;;;;;;;12.95;100.00;100048.50;5060644;28;20049;-52
2022/07/28 04:55:11;;;;;;;1999.90;999.90;;;;;;;13.38;100.00;100055.91;5060094;28;20045;-52
2022/07/28 04:57:56;;;;;;;1999.90;999.90;;;;;;;13.48;100.00;100052.03;5062815;28;20041;-52
2022/07/28 05:00:41;;;;;;;1999.90;999.90;;;;;;;13.15;100.00;100046.09;5052650;28;20068;-51
2022/07/28 05:03:25;;;;;;;1999.90;999.90;;;;;;;13.30;100.00;100063.19;5056572;28;20057;-51
2022/07/28 05:06:10;;;;;;;1999.90;999.90;;;;;;;13.97;100.00;100060.94;5055247;28;20098;-52
2022/07/28 05:08:54;;;;;;;1999.90;999.90;;;;;;;14.45;100.00;100061.84;5053882;28;20507;-52
2022/07/28 05:11:38;;;;;;;1999.90;999.90;;;;;;;14.45;100.00;100053.94;5058707;28;20080;-51
2022/07/28 05:14:23;;;;;;;1999.90;999.90;;;;;;;14.52;100.00;100049.31;5050822;28;20060;-53
2022/07/28 05:17:08;;;;;;;1999.90;999.90;;;;;;;15.18;100.00;100056.41;5053086;28;20664;-52
2022/07/28 05:19:53;;;;;;;1999.90;999.90;;;;;;;15.37;100.00;100055.66;5053924;28;20052;-53
2022/07/28 05:22:45;;;;;;;1999.90;999.90;;;;;;;15.28;100.00;100056.91;5053019;28;20049;-52
2022/07/28 05:25:29;;;;;;;1999.90;999.90;;;;;;;15.24;100.00;100063.25;5050333;28;20040;-52
2022/07/28 05:28:13;;;;;;;1999.90;999.90;;;;;;;15.59;100.00;100061.75;5060358;28;20442;-52
2022/07/28 05:30:58;;;;;;;1999.90;999.90;;;;;;;15.97;100.00;100067.25;5058160;28;20078;-53
2022/07/28 05:33:43;;;;;;;1999.90;999.90;;;;;;;16.35;100.00;100057.66;5052729;28;20053;-53
2022/07/28 05:36:27;;;;;;;1999.90;999.90;;;;;;;16.21;100.00;100065.31;5050573;28;20572;-52
2022/07/28 05:39:11;;;;;;;1999.90;999.90;;;;;;;16.59;100.00;100060.09;5054125;28;20044;-52
2022/07/28 05:41:56;;;;;;;1999.90;999.90;;;;;;;16.75;100.00;100066.41;5049502;28;20053;-53
2022/07/28 05:44:40;;;;;;;1999.90;999.90;;;;;;;16.90;100.00;100064.88;5051022;28;20644;-52
2022/07/28 05:47:25;;;;;;;1999.90;999.90;;;;;;;17.00;100.00;100071.44;5050549;28;20048;-53
2022/07/28 05:50:09;;;;;;;1999.90;999.90;;;;;;;17.18;100.00;100082.06;5047831;28;20670;-53
2022/07/28 05:52:54;;;;;;;1999.90;999.90;;;;;;;17.55;100.00;100077.59;5049019;28;20067;-52
2022/07/28 05:55:39;;;;;;;1999.90;999.90;;;;;;;17.99;100.00;100075.41;5049254;28;20045;-52
2022/07/28 05:58:24;;;;;;;1999.90;999.90;;;;;;;17.97;100.00;100077.28;5055946;28;20060;-53
2022/07/28 06:01:08;;;;;;;1999.90;999.90;;;;;;;18.10;100.00;100081.03;5059384;28;20051;-53
2022/07/28 06:03:53;;;;;;;1999.90;999.90;;;;;;;18.56;100.00;100072.44;5056521;28;20158;-53
2022/07/28 06:06:37;;;;;;;1999.90;999.90;;;;;;;18.76;100.00;100077.53;5057050;28;20143;-54
2022/07/28 06:09:22;;;;;;;1999.90;999.90;;;;;;;18.81;100.00;100077.28;5054912;28;20049;-53
2022/07/28 06:12:06;;;;;;;1999.90;999.90;;;;;;;19.37;100.00;100081.22;5055638;28;20040;-53
2022/07/28 06:14:51;;;;;;;1999.90;999.90;;;;;;;19.81;100.00;100072.50;5058884;28;20048;-54
2022/07/28 06:17:35;;;;;;;1999.90;999.90;;;;;;;18.89;100.00;100081.22;5064162;28;20049;-55
2022/07/28 06:20:21;;;;;;;1999.90;999.90;;;;;;;20.06;100.00;100080.72;5063389;28;20487;-54
2022/07/28 06:23:05;;;;;;;1999.90;999.90;;;;;;;19.92;100.00;100083.38;5060852;28;20045;-54
2022/07/28 06:25:51;;;;;;;1999.90;999.90;;;;;;;19.84;100.00;100085.59;5058474;28;20041;-59
2022/07/28 06:28:35;;;;;;;1999.90;999.90;;;;;;;20.71;100.00;100074.16;5054622;28;20052;-54
2022/07/28 06:31:19;;;;;;;1999.90;999.90;;;;;;;20.69;100.00;100092.00;5054232;28;20045;-55
2022/07/28 06:34:03;;;;;;;1999.90;999.90;;;;;;;19.70;100.00;100083.78;5053724;28;20532;-54
2022/07/28 06:36:48;;;;;;;1999.90;999.90;;;;;;;20.67;100.00;100073.50;5058625;28;20484;-54
2022/07/28 06:39:33;;;;;;;1999.90;999.90;;;;;;;21.20;93.25;100085.19;5055642;28;20056;-53
2022/07/28 06:42:17;;;;;;;1999.90;999.90;;;;;;;21.40;89.74;100075.91;5057021;28;20053;-53
2022/07/28 06:45:02;;;;;;;1999.90;999.90;;;;;;;21.53;84.44;100086.63;5060354;28;20098;-54
2022/07/28 06:47:51;;;;;;;1999.90;999.90;;;;;;;21.20;86.83;100092.31;5054409;28;20060;-54
2022/07/28 06:50:38;;;;;;;1999.90;999.90;;;;;;;21.45;77.81;100089.81;5052014;28;20041;-54
2022/07/28 06:53:22;;;;;;;1999.90;999.90;;;;;;;20.55;77.82;100082.22;5054920;28;20053;-54
2022/07/28 06:56:07;;;;;;;1999.90;999.90;;;;;;;21.60;75.61;100084.41;5053293;28;20041;-53
2022/07/28 06:58:52;;;;;;;1999.90;999.90;;;;;;;21.02;78.71;100078.38;5061482;28;20052;-54
2022/07/28 07:01:36;;;;;;;1999.90;999.90;;;;;;;22.04;78.05;100083.22;5057619;28;20048;-54
2022/07/28 07:04:21;;;;;;;1999.90;999.90;;;;;;;22.00;74.51;100082.59;5051250;28;20048;-54
2022/07/28 07:07:05;;;;;;;1999.90;999.90;;;;;;;22.86;75.96;100072.09;5061754;28;20483;-53
2022/07/28 07:09:50;;;;;;;1999.90;999.90;;;;;;;22.90;79.64;100075.41;5063312;28;20037;-54
2022/07/28 07:12:35;;;;;;;1999.90;999.90;;;;;;;22.85;70.80;100074.91;5061856;28;20408;-55
2022/07/28 07:15:20;;;;;;;1999.90;999.90;;;;;;;23.74;69.42;100079.09;5057427;28;20499;-54
2022/07/28 07:18:04;;;;;;;1999.90;999.90;;;;;;;23.84;70.21;100079.25;5065163;28;20040;-54
2022/07/28 07:20:49;;;;;;;1999.90;999.90;;;;;;;23.92;69.98;100079.50;5054035;28;20041;-54
2022/07/28 07:23:34;;;;;;;1999.90;999.90;;;;;;;23.26;67.18;100085.25;5057173;28;20060;-55
2022/07/28 07:26:18;;;;;;;1999.90;999.90;;;;;;;23.10;72.33;100090.88;5051100;28;20472;-54
2022/07/28 07:29:03;;;;;;;1999.90;999.90;;;;;;;23.45;69.15;100084.75;5048446;28;20045;-54
2022/07/28 07:31:49;;;;;;;1999.90;999.90;;;;;;;24.24;69.03;100088.59;5048859;28;20052;-54
2022/07/28 07:34:34;;;;;;;1999.90;999.90;;;;;;;24.57;70.01;100086.97;5046802;28;20056;-55
2022/07/28 07:37:20;;;;;;;1999.90;999.90;;;;;;;23.61;63.72;100095.16;5049604;28;20052;-55
2022/07/28 07:40:05;;;;;;;1999.90;999.90;;;;;;;24.76;65.12;100086.31;5049826;28;20064;-55
2022/07/28 07:42:50;;;;;;;1999.90;999.90;;;;;;;24.47;63.66;100092.19;5052178;28;20033;-55
2022/07/28 07:45:34;;;;;;;1999.90;999.90;;;;;;;22.92;65.20;100099.34;5048970;28;20391;-55
2022/07/28 07:48:19;;;;;;;1999.90;999.90;;;;;;;24.38;68.86;100100.06;5053530;28;20437;-54
2022/07/28 07:51:03;;;;;;;1999.90;999.90;;;;;;;22.86;66.14;100098.81;5050026;28;20053;-55
2022/07/28 07:53:48;;;;;;;1999.90;999.90;;;;;;;23.87;72.27;100103.09;5056271;28;20071;-54
2022/07/28 07:56:32;;;;;;;1999.90;999.90;;;;;;;24.63;63.55;100097.16;5057777;28;20041;-54
2022/07/28 07:59:17;;;;;;;1999.90;999.90;;;;;;;24.19;63.99;100098.78;5055004;28;20053;-55
2022/07/28 08:02:02;;;;;;;1999.90;999.90;;;;;;;24.25;65.18;100101.00;5051548;28;20488;-55
2022/07/28 08:04:46;;;;;;;1999.90;999.90;;;;;;;24.66;59.45;100098.75;5052057;28;20064;-55
2022/07/28 08:07:30;;;;;;;1999.90;999.90;;;;;;;23.62;63.44;100098.69;5054758;28;20049;-54
2022/07/28 08:10:15;;;;;;;1999.90;999.90;;;;;;;25.31;61.28;100100.66;5054449;28;20491;-56
2022/07/28 08:13:00;;;;;;;1999.90;999.90;;;;;;;25.12;58.24;100082.56;5057141;28;20048;-53
2022/07/28 08:15:45;;;;;;;1999.90;999.90;;;;;;;25.47;59.05;100102.91;5055111;28;20040;-56
2022/07/28 08:18:29;;;;;;;1999.90;999.90;;;;;;;24.89;58.34;100096.91;5059366;28;20487;-52
2022/07/28 08:21:15;;;;;;;1999.90;999.90;;;;;;;25.24;57.99;100102.13;5058914;28;20044;-55
2022/07/28 08:23:59;;;;;;;1999.90;999.90;;;;;;;23.50;56.39;100112.00;5061233;28;20049;-55
2022/07/28 08:26:44;;;;;;;1999.90;999.90;;;;;;;24.57;54.84;100099.47;5055204;28;20059;-55
2022/07/28 08:29:28;;;;;;;1999.90;999.90;;;;;;;24.69;57.22;100096.69;5055237;28;20049;-53
2022/07/28 08:32:13;;;;;;;1999.90;999.90;;;;;;;24.23;57.16;100105.59;5056061;28;20048;-55
2022/07/28 08:34:58;;;;;;;1999.90;999.90;;;;;;;24.44;53.20;100097.78;5056636;28;20060;-55
2022/07/28 08:37:42;;;;;;;1999.90;999.90;;;;;;;25.79;51.44;100091.34;5058258;28;20045;-53
2022/07/28 08:40:31;;;;;;;1999.90;999.90;;;;;;;25.40;54.48;100099.06;5052850;28;20135;-53
2022/07/28 08:43:36;;;;;;;1999.90;999.90;;;;;;;24.93;51.79;100098.41;5053471;28;20056;-52
2022/07/28 08:46:23;;;;;;;1999.90;999.90;;;;;;;25.26;55.55;100093.97;5061862;28;20064;-53
2022/07/28 08:49:08;;;;;;;1999.90;999.90;;;;;;;25.03;55.77;100094.00;5059573;28;20374;-54
2022/07/28 08:51:56;;;;;;;1999.90;999.90;;;;;;;25.63;56.74;100095.31;5059189;28;20606;-52
2022/07/28 08:54:44;;;;;;;1999.90;999.90;;;;;;;25.90;55.03;100090.47;5061697;28;20049;-53
2022/07/28 08:57:36;;;;;;;1999.90;999.90;;;;;;;25.71;55.78;100083.97;5060824;28;20049;-53
2022/07/28 09:00:21;;;;;;;1999.90;999.90;;;;;;;25.51;57.33;100090.13;5058162;28;20082;-55
2022/07/28 09:03:07;;;;;;;1999.90;999.90;;;;;;;26.21;52.76;100080.66;5056037;28;20048;-55
2022/07/28 09:05:52;;;;;;;1999.90;999.90;;;;;;;25.52;53.95;100087.31;5061825;28;20049;-53
2022/07/28 09:08:36;;;;;;;1999.90;999.90;;;;;;;26.41;57.08;100082.47;5063837;28;20045;-53
2022/07/28 09:11:21;;;;;;;1999.90;999.90;;;;;;;26.93;56.07;100074.38;5065434;28;20048;-54
2022/07/28 09:14:05;;;;;;;1999.90;999.90;;;;;;;27.80;50.53;100085.31;5066451;28;20181;-54
2022/07/28 09:16:50;;;;;;;1999.90;999.90;;;;;;;27.61;46.94;100087.97;5059421;28;20418;-52
2022/07/28 09:19:36;;;;;;;1999.90;999.90;;;;;;;27.03;51.17;100077.94;5064846;28;20056;-54
2022/07/28 09:22:20;;;;;;;1999.90;999.90;;;;;;;26.17;49.70;100076.56;5068742;28;20048;-55
2022/07/28 09:25:17;;;;;;;1999.90;999.90;;;;;;;27.08;48.65;100070.31;5062002;28;20047;-53
2022/07/28 09:28:27;;;;;;;1999.90;999.90;;;;;;;26.85;48.93;100068.84;5055080;28;20044;-55
2022/07/28 09:31:12;;;;;;;1999.90;999.90;;;;;;;26.71;47.79;100075.41;5055243;28;20893;-53
2022/07/28 09:33:59;;;;;;;1999.90;999.90;;;;;;;25.99;50.04;100071.75;5054634;28;20460;-54
2022/07/28 09:36:44;;;;;;;1999.90;999.90;;;;;;;26.51;46.93;100074.50;5061442;28;20049;-54
2022/07/28 09:39:33;;;;;;;1999.90;999.90;;;;;;;27.68;45.34;100068.41;5062093;28;20052;-54
2022/07/28 09:42:19;;;;;;;1999.90;999.90;;;;;;;26.88;48.58;100063.19;5059770;28;20067;-54
2022/07/28 09:45:06;;;;;;;1999.90;999.90;;;;;;;26.71;47.47;100070.88;5056601;28;20053;-55
2022/07/28 09:48:08;;;;;;;1999.90;999.90;;;;;;;26.68;49.96;100062.25;5061179;28;20048;-54
2022/07/28 09:51:08;;;;;;;1999.90;999.90;;;;;;;26.55;50.13;100068.72;5062500;28;20049;-55
2022/07/28 09:54:16;;;;;;;1999.90;999.90;;;;;;;27.29;51.13;100064.00;5063561;28;20621;-54
2022/07/28 09:57:00;;;;;;;1999.90;999.90;;;;;;;27.61;46.43;100059.22;5068988;28;20082;-52
2022/07/28 09:59:45;;;;;;;1999.90;999.90;;;;;;;26.40;46.67;100050.41;5066132;28;20044;-54
2022/07/28 10:02:30;;;;;;;1999.90;999.90;;;;;;;27.66;45.37;100046.19;5064291;28;20602;-55
2022/07/28 10:05:15;;;;;;;1999.90;999.90;;;;;;;27.79;44.96;100055.81;5055865;28;20488;-56
2022/07/28 10:08:00;;;;;;;1999.90;999.90;;;;;;;28.09;44.65;100047.59;5066362;28;20044;-54
2022/07/28 10:10:59;;;;;;;1999.90;999.90;;;;;;;27.17;45.53;100045.34;5064445;28;20048;-56
2022/07/28 10:14:01;;;;;;;1999.90;999.90;;;;;;;26.83;42.96;100041.25;5061776;28;20048;-56
2022/07/28 10:16:51;;;;;;;1999.90;999.90;;;;;;;27.45;44.74;100037.41;5067217;28;20044;-55
2022/07/28 10:19:36;;;;;;;1999.90;999.90;;;;;;;26.21;42.17;100038.56;5064207;28;20403;-55
2022/07/28 10:22:22;;;;;;;1999.90;999.90;;;;;;;26.24;47.61;100043.66;5058557;28;20045;-53
2022/07/28 10:25:14;;;;;;;1999.90;999.90;;;;;;;25.60;43.75;100039.25;5055097;28;20078;-56
2022/07/28 10:28:00;;;;;;;1999.90;999.90;;;;;;;25.24;48.19;100036.97;5054926;28;20052;-54
2022/07/28 10:30:46;;;;;;;1999.90;999.90;;;;;;;25.21;45.10;100005.06;5055797;28;20129;-55
2022/07/28 10:33:31;;;;;;;1999.90;999.90;;;;;;;24.95;48.83;100027.63;5061930;28;20037;-55
2022/07/28 10:36:21;;;;;;;1999.90;999.90;;;;;;;24.65;47.76;100024.75;5071354;28;20044;-54
2022/07/28 10:39:14;;;;;;;1999.90;999.90;;;;;;;25.47;49.49;100027.00;5054285;28;20045;-53
2022/07/28 10:41:59;;;;;;;1999.90;999.90;;;;;;;25.21;48.57;100032.69;5054905;28;20044;-53
2022/07/28 10:44:45;;;;;;;1999.90;999.90;;;;;;;24.57;50.00;100021.84;5057072;28;20040;-54
2022/07/28 10:47:30;;;;;;;1999.90;999.90;;;;;;;26.32;48.54;100026.88;5055754;28;20048;-54
2022/07/28 10:50:15;;;;;;;1999.90;999.90;;;;;;;26.94;45.40;100016.94;5055667;28;20046;-55
2022/07/28 10:53:08;;;;;;;1999.90;999.90;;;;;;;26.42;45.24;100016.19;5053554;28;20059;-53
2022/07/28 10:56:01;;;;;;;1999.90;999.90;;;;;;;25.90;46.26;100021.56;5052774;28;20044;-55
2022/07/28 10:58:53;;;;;;;1999.90;999.90;;;;;;;25.57;43.05;100014.53;5056053;28;20044;-53
2022/07/28 11:01:40;;;;;;;1999.90;999.90;;;;;;;25.58;46.59;100008.22;5053516;28;20135;-55
2022/07/28 11:04:51;;;;;;;1999.90;999.90;;;;;;;26.61;45.54;100016.28;5055912;28;20439;-55
2022/07/28 11:07:38;;;;;;;1999.90;999.90;;;;;;;27.55;45.47;100008.69;5035158;28;20391;-54
2022/07/28 11:10:23;;;;;;;1999.90;999.90;;;;;;;27.02;44.07;100009.91;5055859;28;20041;-54
2022/07/28 11:13:27;;;;;;;1999.90;999.90;;;;;;;27.48;43.66;100012.94;5051530;28;20060;-54
2022/07/28 11:16:14;;;;;;;1999.90;999.90;;;;;;;26.08;43.83;100001.19;5056825;28;20057;-53
2022/07/28 11:19:08;;;;;;;1999.90;999.90;;;;;;;26.66;44.27;100014.06;5051877;28;20044;-52
2022/07/28 11:22:17;;;;;;;1999.90;999.90;;;;;;;26.88;42.23;100021.06;5051984;28;20361;-52
2022/07/28 11:25:04;;;;;;;1999.90;999.90;;;;;;;27.12;41.76;100014.44;5054478;28;20052;-55
2022/07/28 11:27:50;;;;;;;1999.90;999.90;;;;;;;26.88;42.93;100012.16;5055827;28;20048;-52
2022/07/28 11:30:46;;;;;;;1999.90;999.90;;;;;;;27.41;43.66;100015.34;5056216;28;20045;-52
2022/07/28 11:33:53;;;;;;;1999.90;999.90;;;;;;;26.78;43.34;100017.50;5053643;28;20451;-53
2022/07/28 11:37:06;;;;;;;1999.90;999.90;;;;;;;26.79;41.95;100016.50;5055748;28;20053;-55
2022/07/28 11:39:51;;;;;;;1999.90;999.90;;;;;;;26.61;44.10;100018.13;5055192;28;20049;-55
2022/07/28 11:42:35;;;;;;;1999.90;999.90;;;;;;;26.46;45.77;100017.63;5056650;28;20364;-52
2022/07/28 11:45:25;;;;;;;1999.90;999.90;;;;;;;25.43;43.20;100021.06;5061189;28;20053;-54
2022/07/28 11:48:15;;;;;;;1999.90;999.90;;;;;;;26.45;45.13;100016.75;5057887;28;20040;-54
2022/07/28 11:51:03;;;;;;;1999.90;999.90;;;;;;;26.07;46.04;100015.63;5062559;28;20048;-54
2022/07/28 11:53:51;;;;;;;1999.90;999.90;;;;;;;25.84;43.37;100014.06;5059164;28;20045;-54
2022/07/28 11:56:36;;;;;;;1999.90;999.90;;;;;;;26.02;46.35;100016.97;5063002;28;20040;-54
2022/07/28 11:59:21;;;;;;;1999.90;999.90;;;;;;;26.54;43.65;100010.63;5059252;28;20495;-55
2022/07/28 12:02:05;;;;;;;1999.90;999.90;;;;;;;25.25;43.90;100004.69;5063538;28;20040;-53
2022/07/28 12:04:58;;;;;;;1999.90;999.90;;;;;;;26.08;43.33;100003.03;5062988;28;20044;-55
2022/07/28 12:07:51;;;;;;;1999.90;999.90;;;;;;;26.11;45.60;100005.47;5061121;28;20048;-54
2022/07/28 12:10:35;;;;;;;1999.90;999.90;;;;;;;26.44;43.31;99995.44;5063476;28;20052;-53
2022/07/28 12:13:26;;;;;;;1999.90;999.90;;;;;;;26.08;46.37;99995.00;5060020;28;20048;-54
2022/07/28 12:16:11;;;;;;;1999.90;999.90;;;;;;;25.99;43.62;99999.31;5056199;28;20628;-52